sensor_id;sensor_type;location;lat;lon;timestamp;P1;durP1;ratioP1;P2;durP2;ratioP2
81273;SDS011;70753;47.908;11.274;2023-11-22T00:02:12;13.48;;;8.23;;
81273;SDS011;70753;47.908;11.274;2023-11-22T00:04:58;11.93;;;6.55;;
81273;SDS011;70753;47.908;11.274;2023-11-22T00:07:45;10.43;;;6.55;;
81273;SDS011;70753;47.908;11.274;2023-11-22T00:10:31;8.93;;;5.18;;
81273;SDS011;70753;47.908;11.274;2023-11-22T00:13:17;7.95;;;4.47;;
81273;SDS011;70753;47.908;11.274;2023-11-22T00:16:03;9.45;;;5.88;;
81273;SDS011;70753;47.908;11.274;2023-11-22T00:18:49;9.82;;;5.88;;
81273;SDS011;70753;47.908;11.274;2023-11-22T00:21:34;11.38;;;6.07;;
81273;SDS011;70753;47.908;11.274;2023-11-22T00:24:21;12.68;;;6.65;;
81273;SDS011;70753;47.908;11.274;2023-11-22T00:27:07;10.90;;;6.43;;
81273;SDS011;70753;47.908;11.274;2023-11-22T00:29:53;10.38;;;6.90;;
81273;SDS011;70753;47.908;11.274;2023-11-22T00:32:39;12.95;;;7.30;;
81273;SDS011;70753;47.908;11.274;2023-11-22T00:35:24;11.68;;;7.20;;
81273;SDS011;70753;47.908;11.274;2023-11-22T00:38:10;13.05;;;6.95;;
81273;SDS011;70753;47.908;11.274;2023-11-22T00:40:57;11.60;;;6.28;;
81273;SDS011;70753;47.908;11.274;2023-11-22T00:43:44;13.73;;;7.20;;
81273;SDS011;70753;47.908;11.274;2023-11-22T00:46:30;13.55;;;6.75;;
81273;SDS011;70753;47.908;11.274;2023-11-22T00:49:16;10.23;;;6.15;;
81273;SDS011;70753;47.908;11.274;2023-11-22T00:52:02;12.43;;;6.82;;
81273;SDS011;70753;47.908;11.274;2023-11-22T00:54:47;11.35;;;6.70;;
81273;SDS011;70753;47.908;11.274;2023-11-22T00:57:35;12.20;;;6.82;;
81273;SDS011;70753;47.908;11.274;2023-11-22T01:00:21;13.63;;;6.22;;
81273;SDS011;70753;47.908;11.274;2023-11-22T01:03:07;10.23;;;6.40;;
81273;SDS011;70753;47.908;11.274;2023-11-22T01:05:52;10.63;;;6.57;;
81273;SDS011;70753;47.908;11.274;2023-11-22T01:08:38;13.20;;;6.28;;
81273;SDS011;70753;47.908;11.274;2023-11-22T01:11:24;11.20;;;6.70;;
81273;SDS011;70753;47.908;11.274;2023-11-22T01:14:11;10.95;;;6.88;;
81273;SDS011;70753;47.908;11.274;2023-11-22T01:16:57;13.15;;;7.45;;
81273;SDS011;70753;47.908;11.274;2023-11-22T01:19:42;12.18;;;7.18;;
81273;SDS011;70753;47.908;11.274;2023-11-22T01:22:28;13.35;;;6.57;;
81273;SDS011;70753;47.908;11.274;2023-11-22T01:25:14;12.13;;;6.22;;
81273;SDS011;70753;47.908;11.274;2023-11-22T01:28:00;11.45;;;7.22;;
81273;SDS011;70753;47.908;11.274;2023-11-22T01:30:47;12.25;;;5.95;;
81273;SDS011;70753;47.908;11.274;2023-11-22T01:33:32;11.55;;;6.43;;
81273;SDS011;70753;47.908;11.274;2023-11-22T01:36:18;12.13;;;7.57;;
81273;SDS011;70753;47.908;11.274;2023-11-22T01:39:04;10.98;;;6.03;;
81273;SDS011;70753;47.908;11.274;2023-11-22T01:41:50;10.65;;;6.57;;
81273;SDS011;70753;47.908;11.274;2023-11-22T01:44:35;11.85;;;6.20;;
81273;SDS011;70753;47.908;11.274;2023-11-22T01:47:23;12.07;;;6.82;;
81273;SDS011;70753;47.908;11.274;2023-11-22T01:50:09;12.77;;;6.88;;
81273;SDS011;70753;47.908;11.274;2023-11-22T01:52:55;10.95;;;6.40;;
81273;SDS011;70753;47.908;11.274;2023-11-22T01:55:41;11.07;;;6.60;;
81273;SDS011;70753;47.908;11.274;2023-11-22T01:58:27;12.40;;;6.68;;
81273;SDS011;70753;47.908;11.274;2023-11-22T02:01:13;13.30;;;7.13;;
81273;SDS011;70753;47.908;11.274;2023-11-22T02:04:00;13.30;;;7.70;;
81273;SDS011;70753;47.908;11.274;2023-11-22T02:06:46;15.30;;;6.97;;
81273;SDS011;70753;47.908;11.274;2023-11-22T02:09:32;14.07;;;7.35;;
81273;SDS011;70753;47.908;11.274;2023-11-22T02:12:17;12.50;;;6.68;;
81273;SDS011;70753;47.908;11.274;2023-11-22T02:15:04;14.63;;;7.70;;
81273;SDS011;70753;47.908;11.274;2023-11-22T02:17:50;12.80;;;7.10;;
81273;SDS011;70753;47.908;11.274;2023-11-22T02:20:37;12.35;;;7.38;;
81273;SDS011;70753;47.908;11.274;2023-11-22T02:23:24;12.77;;;6.95;;
81273;SDS011;70753;47.908;11.274;2023-11-22T02:26:10;13.38;;;7.57;;
81273;SDS011;70753;47.908;11.274;2023-11-22T02:28:56;15.43;;;7.55;;
81273;SDS011;70753;47.908;11.274;2023-11-22T02:31:42;14.40;;;6.72;;
81273;SDS011;70753;47.908;11.274;2023-11-22T02:34:28;13.20;;;6.85;;
81273;SDS011;70753;47.908;11.274;2023-11-22T02:37:14;13.05;;;7.00;;
81273;SDS011;70753;47.908;11.274;2023-11-22T02:40:02;16.35;;;7.20;;
81273;SDS011;70753;47.908;11.274;2023-11-22T02:42:51;14.68;;;7.25;;
81273;SDS011;70753;47.908;11.274;2023-11-22T02:45:38;15.38;;;7.72;;
81273;SDS011;70753;47.908;11.274;2023-11-22T02:48:24;13.88;;;7.53;;
81273;SDS011;70753;47.908;11.274;2023-11-22T02:51:10;15.75;;;8.40;;
81273;SDS011;70753;47.908;11.274;2023-11-22T02:53:56;15.48;;;7.78;;
81273;SDS011;70753;47.908;11.274;2023-11-22T02:56:43;18.30;;;7.75;;
81273;SDS011;70753;47.908;11.274;2023-11-22T02:59:28;12.75;;;7.72;;
81273;SDS011;70753;47.908;11.274;2023-11-22T03:02:14;17.08;;;7.88;;
81273;SDS011;70753;47.908;11.274;2023-11-22T03:05:00;15.52;;;8.27;;
81273;SDS011;70753;47.908;11.274;2023-11-22T03:07:45;16.83;;;7.72;;
81273;SDS011;70753;47.908;11.274;2023-11-22T03:10:31;15.95;;;8.50;;
81273;SDS011;70753;47.908;11.274;2023-11-22T03:13:18;15.40;;;8.02;;
81273;SDS011;70753;47.908;11.274;2023-11-22T03:16:04;19.80;;;8.35;;
81273;SDS011;70753;47.908;11.274;2023-11-22T03:18:50;13.50;;;7.57;;
81273;SDS011;70753;47.908;11.274;2023-11-22T03:21:36;14.73;;;7.78;;
81273;SDS011;70753;47.908;11.274;2023-11-22T03:24:21;14.45;;;7.10;;
81273;SDS011;70753;47.908;11.274;2023-11-22T03:27:07;13.88;;;6.60;;
81273;SDS011;70753;47.908;11.274;2023-11-22T03:29:54;12.00;;;6.93;;
81273;SDS011;70753;47.908;11.274;2023-11-22T03:32:40;13.88;;;6.95;;
81273;SDS011;70753;47.908;11.274;2023-11-22T03:35:26;14.73;;;7.07;;
81273;SDS011;70753;47.908;11.274;2023-11-22T03:38:12;6.57;;;3.70;;
81273;SDS011;70753;47.908;11.274;2023-11-22T03:40:57;6.65;;;2.70;;
81273;SDS011;70753;47.908;11.274;2023-11-22T03:43:43;4.57;;;2.40;;
81273;SDS011;70753;47.908;11.274;2023-11-22T03:46:30;4.60;;;2.60;;
81273;SDS011;70753;47.908;11.274;2023-11-22T03:49:16;5.00;;;2.60;;
81273;SDS011;70753;47.908;11.274;2023-11-22T03:52:02;5.60;;;2.60;;
81273;SDS011;70753;47.908;11.274;2023-11-22T03:54:47;4.13;;;2.40;;
81273;SDS011;70753;47.908;11.274;2023-11-22T03:57:33;4.60;;;2.30;;
81273;SDS011;70753;47.908;11.274;2023-11-22T04:00:19;4.57;;;2.45;;
81273;SDS011;70753;47.908;11.274;2023-11-22T04:03:06;4.60;;;2.35;;
81273;SDS011;70753;47.908;11.274;2023-11-22T04:05:52;4.68;;;2.13;;
81273;SDS011;70753;47.908;11.274;2023-11-22T04:08:37;4.13;;;2.33;;
81273;SDS011;70753;47.908;11.274;2023-11-22T04:11:23;6.22;;;2.30;;
81273;SDS011;70753;47.908;11.274;2023-11-22T04:14:09;3.88;;;2.00;;
81273;SDS011;70753;47.908;11.274;2023-11-22T04:16:54;4.25;;;2.28;;
81273;SDS011;70753;47.908;11.274;2023-11-22T04:19:41;4.70;;;2.20;;
81273;SDS011;70753;47.908;11.274;2023-11-22T04:22:27;3.90;;;2.15;;
81273;SDS011;70753;47.908;11.274;2023-11-22T04:25:13;4.10;;;1.98;;
81273;SDS011;70753;47.908;11.274;2023-11-22T04:27:59;4.22;;;2.42;;
81273;SDS011;70753;47.908;11.274;2023-11-22T04:30:44;4.10;;;2.00;;
81273;SDS011;70753;47.908;11.274;2023-11-22T04:33:30;3.85;;;2.03;;
81273;SDS011;70753;47.908;11.274;2023-11-22T04:36:17;4.70;;;2.45;;
81273;SDS011;70753;47.908;11.274;2023-11-22T04:39:03;5.53;;;2.38;;
81273;SDS011;70753;47.908;11.274;2023-11-22T04:41:49;3.80;;;2.15;;
81273;SDS011;70753;47.908;11.274;2023-11-22T04:44:35;3.72;;;1.92;;
81273;SDS011;70753;47.908;11.274;2023-11-22T04:47:20;4.43;;;2.25;;
81273;SDS011;70753;47.908;11.274;2023-11-22T04:50:06;4.10;;;2.08;;
81273;SDS011;70753;47.908;11.274;2023-11-22T04:52:54;4.75;;;2.40;;
81273;SDS011;70753;47.908;11.274;2023-11-22T04:55:39;4.78;;;3.22;;
81273;SDS011;70753;47.908;11.274;2023-11-22T04:58:25;4.45;;;2.47;;
81273;SDS011;70753;47.908;11.274;2023-11-22T05:01:11;4.97;;;2.60;;
81273;SDS011;70753;47.908;11.274;2023-11-22T05:03:56;5.15;;;2.40;;
81273;SDS011;70753;47.908;11.274;2023-11-22T05:06:42;6.20;;;2.95;;
81273;SDS011;70753;47.908;11.274;2023-11-22T05:09:29;5.10;;;2.80;;
81273;SDS011;70753;47.908;11.274;2023-11-22T05:12:15;5.75;;;2.70;;
81273;SDS011;70753;47.908;11.274;2023-11-22T05:15:01;8.13;;;3.38;;
81273;SDS011;70753;47.908;11.274;2023-11-22T05:17:46;5.38;;;2.78;;
81273;SDS011;70753;47.908;11.274;2023-11-22T05:20:32;5.93;;;3.17;;
81273;SDS011;70753;47.908;11.274;2023-11-22T05:23:18;7.05;;;3.35;;
81273;SDS011;70753;47.908;11.274;2023-11-22T05:26:05;5.55;;;3.08;;
81273;SDS011;70753;47.908;11.274;2023-11-22T05:28:51;5.45;;;2.88;;
81273;SDS011;70753;47.908;11.274;2023-11-22T05:31:36;5.50;;;2.65;;
81273;SDS011;70753;47.908;11.274;2023-11-22T05:34:22;6.90;;;4.07;;
81273;SDS011;70753;47.908;11.274;2023-11-22T05:37:08;5.47;;;3.53;;
81273;SDS011;70753;47.908;11.274;2023-11-22T05:39:53;4.95;;;2.55;;
81273;SDS011;70753;47.908;11.274;2023-11-22T05:42:41;5.30;;;2.55;;
81273;SDS011;70753;47.908;11.274;2023-11-22T05:45:26;4.63;;;2.70;;
81273;SDS011;70753;47.908;11.274;2023-11-22T05:48:12;4.70;;;3.00;;
81273;SDS011;70753;47.908;11.274;2023-11-22T05:50:58;4.82;;;2.30;;
81273;SDS011;70753;47.908;11.274;2023-11-22T05:53:44;5.38;;;3.05;;
81273;SDS011;70753;47.908;11.274;2023-11-22T05:56:29;4.45;;;2.47;;
81273;SDS011;70753;47.908;11.274;2023-11-22T05:59:16;4.95;;;2.60;;
81273;SDS011;70753;47.908;11.274;2023-11-22T06:02:02;5.45;;;2.75;;
81273;SDS011;70753;47.908;11.274;2023-11-22T06:04:48;5.50;;;2.70;;
81273;SDS011;70753;47.908;11.274;2023-11-22T06:07:34;4.72;;;2.60;;
81273;SDS011;70753;47.908;11.274;2023-11-22T06:10:19;4.38;;;2.28;;
81273;SDS011;70753;47.908;11.274;2023-11-22T06:13:05;4.30;;;2.42;;
81273;SDS011;70753;47.908;11.274;2023-11-22T06:15:52;4.85;;;2.60;;
81273;SDS011;70753;47.908;11.274;2023-11-22T06:18:38;5.20;;;2.60;;
81273;SDS011;70753;47.908;11.274;2023-11-22T06:21:23;4.90;;;2.60;;
81273;SDS011;70753;47.908;11.274;2023-11-22T06:24:09;5.70;;;2.58;;
81273;SDS011;70753;47.908;11.274;2023-11-22T06:26:55;4.50;;;2.50;;
81273;SDS011;70753;47.908;11.274;2023-11-22T06:29:41;4.75;;;2.50;;
81273;SDS011;70753;47.908;11.274;2023-11-22T06:32:28;5.22;;;2.53;;
81273;SDS011;70753;47.908;11.274;2023-11-22T06:35:13;5.15;;;2.70;;
81273;SDS011;70753;47.908;11.274;2023-11-22T06:37:59;5.25;;;2.60;;
81273;SDS011;70753;47.908;11.274;2023-11-22T06:40:45;4.80;;;2.70;;
81273;SDS011;70753;47.908;11.274;2023-11-22T06:43:30;4.63;;;2.75;;
81273;SDS011;70753;47.908;11.274;2023-11-22T06:46:16;5.57;;;2.70;;
81273;SDS011;70753;47.908;11.274;2023-11-22T06:49:03;5.28;;;2.60;;
81273;SDS011;70753;47.908;11.274;2023-11-22T06:51:49;5.15;;;2.40;;
81273;SDS011;70753;47.908;11.274;2023-11-22T06:54:35;4.63;;;2.80;;
81273;SDS011;70753;47.908;11.274;2023-11-22T06:57:20;4.60;;;2.60;;
81273;SDS011;70753;47.908;11.274;2023-11-22T07:00:06;5.35;;;2.90;;
81273;SDS011;70753;47.908;11.274;2023-11-22T07:02:53;5.28;;;3.05;;
81273;SDS011;70753;47.908;11.274;2023-11-22T07:05:40;3.92;;;2.40;;
81273;SDS011;70753;47.908;11.274;2023-11-22T07:08:26;4.80;;;2.55;;
81273;SDS011;70753;47.908;11.274;2023-11-22T07:11:11;5.05;;;2.72;;
81273;SDS011;70753;47.908;11.274;2023-11-22T07:13:57;6.07;;;3.25;;
81273;SDS011;70753;47.908;11.274;2023-11-22T07:16:43;5.03;;;3.00;;
81273;SDS011;70753;47.908;11.274;2023-11-22T07:19:29;4.72;;;2.45;;
81273;SDS011;70753;47.908;11.274;2023-11-22T07:22:16;5.22;;;2.70;;
81273;SDS011;70753;47.908;11.274;2023-11-22T07:25:02;5.70;;;2.70;;
81273;SDS011;70753;47.908;11.274;2023-11-22T07:27:48;5.05;;;2.78;;
81273;SDS011;70753;47.908;11.274;2023-11-22T07:30:33;4.75;;;2.67;;
81273;SDS011;70753;47.908;11.274;2023-11-22T07:33:19;5.35;;;2.72;;
81273;SDS011;70753;47.908;11.274;2023-11-22T07:36:05;5.20;;;2.83;;
81273;SDS011;70753;47.908;11.274;2023-11-22T07:38:52;6.55;;;3.60;;
81273;SDS011;70753;47.908;11.274;2023-11-22T07:41:38;5.50;;;3.00;;
81273;SDS011;70753;47.908;11.274;2023-11-22T07:44:23;6.00;;;3.30;;
81273;SDS011;70753;47.908;11.274;2023-11-22T07:47:10;5.20;;;2.95;;
81273;SDS011;70753;47.908;11.274;2023-11-22T07:49:55;5.75;;;3.17;;
81273;SDS011;70753;47.908;11.274;2023-11-22T07:52:41;8.23;;;3.60;;
81273;SDS011;70753;47.908;11.274;2023-11-22T07:55:28;5.95;;;3.58;;
81273;SDS011;70753;47.908;11.274;2023-11-22T07:58:14;6.47;;;3.35;;
81273;SDS011;70753;47.908;11.274;2023-11-22T08:01:00;6.25;;;3.15;;
81273;SDS011;70753;47.908;11.274;2023-11-22T08:03:45;5.93;;;3.20;;
81273;SDS011;70753;47.908;11.274;2023-11-22T08:06:31;5.28;;;3.25;;
81273;SDS011;70753;47.908;11.274;2023-11-22T08:09:17;6.40;;;3.20;;
81273;SDS011;70753;47.908;11.274;2023-11-22T08:12:04;6.63;;;2.90;;
81273;SDS011;70753;47.908;11.274;2023-11-22T08:14:50;5.78;;;2.90;;
81273;SDS011;70753;47.908;11.274;2023-11-22T08:17:36;6.50;;;3.13;;
81273;SDS011;70753;47.908;11.274;2023-11-22T08:20:22;5.78;;;3.08;;
81273;SDS011;70753;47.908;11.274;2023-11-22T08:23:07;6.38;;;2.92;;
81273;SDS011;70753;47.908;11.274;2023-11-22T08:25:53;7.45;;;3.28;;
81273;SDS011;70753;47.908;11.274;2023-11-22T08:28:40;6.35;;;3.17;;
81273;SDS011;70753;47.908;11.274;2023-11-22T08:31:26;6.45;;;3.53;;
81273;SDS011;70753;47.908;11.274;2023-11-22T08:34:12;7.70;;;3.38;;
81273;SDS011;70753;47.908;11.274;2023-11-22T08:36:58;6.32;;;3.50;;
81273;SDS011;70753;47.908;11.274;2023-11-22T08:39:43;5.88;;;3.20;;
81273;SDS011;70753;47.908;11.274;2023-11-22T08:42:29;8.27;;;3.50;;
81273;SDS011;70753;47.908;11.274;2023-11-22T08:45:16;5.65;;;2.72;;
81273;SDS011;70753;47.908;11.274;2023-11-22T08:48:02;4.78;;;2.88;;
81273;SDS011;70753;47.908;11.274;2023-11-22T08:50:48;6.30;;;3.55;;
81273;SDS011;70753;47.908;11.274;2023-11-22T08:53:34;6.10;;;3.13;;
81273;SDS011;70753;47.908;11.274;2023-11-22T08:56:20;5.57;;;2.95;;
81273;SDS011;70753;47.908;11.274;2023-11-22T08:59:05;5.43;;;3.00;;
81273;SDS011;70753;47.908;11.274;2023-11-22T09:01:53;5.25;;;2.60;;
81273;SDS011;70753;47.908;11.274;2023-11-22T09:04:38;5.95;;;3.33;;
81273;SDS011;70753;47.908;11.274;2023-11-22T09:07:24;5.47;;;3.00;;
81273;SDS011;70753;47.908;11.274;2023-11-22T09:10:10;6.18;;;3.45;;
81273;SDS011;70753;47.908;11.274;2023-11-22T09:12:56;6.93;;;3.42;;
81273;SDS011;70753;47.908;11.274;2023-11-22T09:15:42;6.03;;;3.20;;
81273;SDS011;70753;47.908;11.274;2023-11-22T09:18:29;6.63;;;3.22;;
81273;SDS011;70753;47.908;11.274;2023-11-22T09:21:15;6.40;;;3.13;;
81273;SDS011;70753;47.908;11.274;2023-11-22T09:24:01;5.43;;;3.17;;
81273;SDS011;70753;47.908;11.274;2023-11-22T09:26:46;4.95;;;2.70;;
81273;SDS011;70753;47.908;11.274;2023-11-22T09:29:32;6.60;;;3.00;;
81273;SDS011;70753;47.908;11.274;2023-11-22T09:32:18;5.50;;;3.20;;
81273;SDS011;70753;47.908;11.274;2023-11-22T09:35:05;5.20;;;3.00;;
81273;SDS011;70753;47.908;11.274;2023-11-22T09:37:51;7.32;;;3.38;;
81273;SDS011;70753;47.908;11.274;2023-11-22T09:40:38;8.52;;;2.90;;
81273;SDS011;70753;47.908;11.274;2023-11-22T09:43:26;7.20;;;3.55;;
81273;SDS011;70753;47.908;11.274;2023-11-22T09:46:12;6.30;;;3.55;;
81273;SDS011;70753;47.908;11.274;2023-11-22T09:48:58;7.45;;;3.10;;
81273;SDS011;70753;47.908;11.274;2023-11-22T09:51:47;6.55;;;3.60;;
81273;SDS011;70753;47.908;11.274;2023-11-22T09:54:36;5.70;;;3.60;;
81273;SDS011;70753;47.908;11.274;2023-11-22T09:57:23;5.82;;;3.22;;
81273;SDS011;70753;47.908;11.274;2023-11-22T10:00:11;5.95;;;3.58;;
81273;SDS011;70753;47.908;11.274;2023-11-22T10:02:58;5.28;;;3.30;;
81273;SDS011;70753;47.908;11.274;2023-11-22T10:05:44;5.40;;;3.00;;
81273;SDS011;70753;47.908;11.274;2023-11-22T10:08:31;5.35;;;3.42;;
81273;SDS011;70753;47.908;11.274;2023-11-22T10:11:17;6.72;;;3.33;;
81273;SDS011;70753;47.908;11.274;2023-11-22T10:14:03;5.38;;;3.42;;
81273;SDS011;70753;47.908;11.274;2023-11-22T10:16:57;5.95;;;3.38;;
81273;SDS011;70753;47.908;11.274;2023-11-22T10:19:43;6.20;;;3.00;;
81273;SDS011;70753;47.908;11.274;2023-11-22T10:22:29;4.95;;;2.95;;
81273;SDS011;70753;47.908;11.274;2023-11-22T10:25:16;5.28;;;2.22;;
81273;SDS011;70753;47.908;11.274;2023-11-22T10:28:02;5.53;;;2.72;;
81273;SDS011;70753;47.908;11.274;2023-11-22T10:30:48;5.30;;;2.78;;
81273;SDS011;70753;47.908;11.274;2023-11-22T10:33:38;4.47;;;2.58;;
81273;SDS011;70753;47.908;11.274;2023-11-22T10:36:24;4.90;;;2.58;;
81273;SDS011;70753;47.908;11.274;2023-11-22T10:39:10;7.75;;;2.83;;
81273;SDS011;70753;47.908;11.274;2023-11-22T10:41:57;4.43;;;2.63;;
81273;SDS011;70753;47.908;11.274;2023-11-22T10:44:44;4.85;;;2.78;;
81273;SDS011;70753;47.908;11.274;2023-11-22T10:47:34;4.95;;;2.75;;
81273;SDS011;70753;47.908;11.274;2023-11-22T10:50:21;4.85;;;3.03;;
81273;SDS011;70753;47.908;11.274;2023-11-22T10:53:07;5.57;;;3.08;;
81273;SDS011;70753;47.908;11.274;2023-11-22T10:55:58;4.75;;;2.70;;
81273;SDS011;70753;47.908;11.274;2023-11-22T10:58:50;4.78;;;2.58;;
81273;SDS011;70753;47.908;11.274;2023-11-22T11:01:36;5.22;;;2.55;;
81273;SDS011;70753;47.908;11.274;2023-11-22T11:04:27;5.95;;;2.50;;
81273;SDS011;70753;47.908;11.274;2023-11-22T11:07:17;4.95;;;2.90;;
81273;SDS011;70753;47.908;11.274;2023-11-22T11:10:07;5.07;;;3.03;;
81273;SDS011;70753;47.908;11.274;2023-11-22T11:12:54;4.85;;;2.83;;
81273;SDS011;70753;47.908;11.274;2023-11-22T11:15:42;4.85;;;2.70;;
81273;SDS011;70753;47.908;11.274;2023-11-22T11:18:29;4.40;;;2.70;;
81273;SDS011;70753;47.908;11.274;2023-11-22T11:21:16;4.82;;;2.70;;
81273;SDS011;70753;47.908;11.274;2023-11-22T11:24:01;5.10;;;2.90;;
81273;SDS011;70753;47.908;11.274;2023-11-22T11:26:48;4.72;;;2.80;;
81273;SDS011;70753;47.908;11.274;2023-11-22T11:29:34;5.03;;;2.65;;
81273;SDS011;70753;47.908;11.274;2023-11-22T11:32:31;5.50;;;3.05;;
81273;SDS011;70753;47.908;11.274;2023-11-22T11:35:17;5.10;;;3.00;;
81273;SDS011;70753;47.908;11.274;2023-11-22T11:38:03;5.05;;;3.00;;
81273;SDS011;70753;47.908;11.274;2023-11-22T11:40:48;4.95;;;3.08;;
81273;SDS011;70753;47.908;11.274;2023-11-22T11:43:44;5.95;;;2.85;;
81273;SDS011;70753;47.908;11.274;2023-11-22T11:46:30;5.30;;;2.85;;
81273;SDS011;70753;47.908;11.274;2023-11-22T11:49:17;5.65;;;3.10;;
81273;SDS011;70753;47.908;11.274;2023-11-22T11:52:03;5.07;;;3.35;;
81273;SDS011;70753;47.908;11.274;2023-11-22T11:54:50;4.57;;;2.75;;
81273;SDS011;70753;47.908;11.274;2023-11-22T11:57:36;5.47;;;2.58;;
81273;SDS011;70753;47.908;11.274;2023-11-22T12:00:22;4.60;;;2.72;;
81273;SDS011;70753;47.908;11.274;2023-11-22T12:03:07;4.22;;;2.58;;
81273;SDS011;70753;47.908;11.274;2023-11-22T12:05:54;4.43;;;2.40;;
81273;SDS011;70753;47.908;11.274;2023-11-22T12:08:40;4.43;;;2.40;;
81273;SDS011;70753;47.908;11.274;2023-11-22T12:11:26;5.30;;;2.70;;
81273;SDS011;70753;47.908;11.274;2023-11-22T12:14:12;4.85;;;2.75;;
81273;SDS011;70753;47.908;11.274;2023-11-22T12:16:57;5.35;;;3.20;;
81273;SDS011;70753;47.908;11.274;2023-11-22T12:19:43;5.80;;;3.00;;
81273;SDS011;70753;47.908;11.274;2023-11-22T12:22:30;4.53;;;2.85;;
81273;SDS011;70753;47.908;11.274;2023-11-22T12:25:16;4.40;;;2.75;;
81273;SDS011;70753;47.908;11.274;2023-11-22T12:28:02;5.80;;;3.45;;
81273;SDS011;70753;47.908;11.274;2023-11-22T12:30:49;5.65;;;2.90;;
81273;SDS011;70753;47.908;11.274;2023-11-22T12:33:35;4.60;;;3.03;;
81273;SDS011;70753;47.908;11.274;2023-11-22T12:36:21;5.50;;;3.13;;
81273;SDS011;70753;47.908;11.274;2023-11-22T12:39:08;4.65;;;2.88;;
81273;SDS011;70753;47.908;11.274;2023-11-22T12:41:54;4.53;;;2.38;;
81273;SDS011;70753;47.908;11.274;2023-11-22T12:44:46;5.85;;;2.83;;
81273;SDS011;70753;47.908;11.274;2023-11-22T12:47:32;4.47;;;2.80;;
81273;SDS011;70753;47.908;11.274;2023-11-22T12:50:35;4.13;;;2.63;;
81273;SDS011;70753;47.908;11.274;2023-11-22T12:53:21;4.50;;;2.90;;
81273;SDS011;70753;47.908;11.274;2023-11-22T12:56:09;4.15;;;2.63;;
81273;SDS011;70753;47.908;11.274;2023-11-22T12:58:54;5.85;;;3.00;;
81273;SDS011;70753;47.908;11.274;2023-11-22T13:01:40;5.65;;;2.88;;
81273;SDS011;70753;47.908;11.274;2023-11-22T13:04:26;5.13;;;3.00;;
81273;SDS011;70753;47.908;11.274;2023-11-22T13:07:12;7.70;;;3.53;;
81273;SDS011;70753;47.908;11.274;2023-11-22T13:09:57;5.72;;;3.45;;
81273;SDS011;70753;47.908;11.274;2023-11-22T13:12:44;5.70;;;3.33;;
81273;SDS011;70753;47.908;11.274;2023-11-22T13:15:30;5.03;;;3.03;;
81273;SDS011;70753;47.908;11.274;2023-11-22T13:18:16;6.05;;;3.58;;
81273;SDS011;70753;47.908;11.274;2023-11-22T13:21:02;6.40;;;3.30;;
81273;SDS011;70753;47.908;11.274;2023-11-22T13:23:48;5.25;;;3.25;;
81273;SDS011;70753;47.908;11.274;2023-11-22T13:26:34;5.80;;;3.17;;
81273;SDS011;70753;47.908;11.274;2023-11-22T13:29:21;5.43;;;3.22;;
81273;SDS011;70753;47.908;11.274;2023-11-22T13:32:07;5.95;;;3.60;;
81273;SDS011;70753;47.908;11.274;2023-11-22T13:34:53;6.07;;;3.85;;
81273;SDS011;70753;47.908;11.274;2023-11-22T13:37:38;6.32;;;3.33;;
81273;SDS011;70753;47.908;11.274;2023-11-22T13:40:24;6.20;;;3.28;;
81273;SDS011;70753;47.908;11.274;2023-11-22T13:43:10;5.55;;;3.33;;
81273;SDS011;70753;47.908;11.274;2023-11-22T13:45:57;6.25;;;3.70;;
81273;SDS011;70753;47.908;11.274;2023-11-22T13:48:43;6.03;;;4.05;;
81273;SDS011;70753;47.908;11.274;2023-11-22T13:51:29;8.18;;;4.00;;
81273;SDS011;70753;47.908;11.274;2023-11-22T13:54:14;5.07;;;3.03;;
81273;SDS011;70753;47.908;11.274;2023-11-22T13:57:00;6.55;;;3.45;;
81273;SDS011;70753;47.908;11.274;2023-11-22T13:59:46;5.35;;;3.30;;
81273;SDS011;70753;47.908;11.274;2023-11-22T14:02:33;6.38;;;3.60;;
81273;SDS011;70753;47.908;11.274;2023-11-22T14:05:19;5.50;;;3.50;;
81273;SDS011;70753;47.908;11.274;2023-11-22T14:08:04;5.20;;;3.40;;
81273;SDS011;70753;47.908;11.274;2023-11-22T14:10:51;5.72;;;3.60;;
81273;SDS011;70753;47.908;11.274;2023-11-22T14:13:36;6.18;;;3.33;;
81273;SDS011;70753;47.908;11.274;2023-11-22T14:16:22;4.88;;;3.40;;
81273;SDS011;70753;47.908;11.274;2023-11-22T14:19:09;5.82;;;3.40;;
81273;SDS011;70753;47.908;11.274;2023-11-22T14:21:55;6.00;;;3.80;;
81273;SDS011;70753;47.908;11.274;2023-11-22T14:24:40;7.07;;;3.67;;
81273;SDS011;70753;47.908;11.274;2023-11-22T14:27:26;6.55;;;3.85;;
81273;SDS011;70753;47.908;11.274;2023-11-22T14:30:12;9.45;;;4.97;;
81273;SDS011;70753;47.908;11.274;2023-11-22T14:32:58;8.02;;;4.35;;
81273;SDS011;70753;47.908;11.274;2023-11-22T14:35:45;8.13;;;4.63;;
81273;SDS011;70753;47.908;11.274;2023-11-22T14:38:31;7.13;;;4.20;;
81273;SDS011;70753;47.908;11.274;2023-11-22T14:41:17;6.82;;;4.05;;
81273;SDS011;70753;47.908;11.274;2023-11-22T14:44:03;9.10;;;3.92;;
81273;SDS011;70753;47.908;11.274;2023-11-22T14:46:48;5.82;;;3.38;;
81273;SDS011;70753;47.908;11.274;2023-11-22T14:49:34;6.80;;;4.00;;
81273;SDS011;70753;47.908;11.274;2023-11-22T14:52:21;6.43;;;3.85;;
81273;SDS011;70753;47.908;11.274;2023-11-22T14:55:07;5.93;;;3.50;;
81273;SDS011;70753;47.908;11.274;2023-11-22T14:57:53;7.60;;;4.50;;
81273;SDS011;70753;47.908;11.274;2023-11-22T15:00:39;6.60;;;4.13;;
81273;SDS011;70753;47.908;11.274;2023-11-22T15:03:24;7.15;;;3.90;;
81273;SDS011;70753;47.908;11.274;2023-11-22T15:06:10;7.05;;;3.85;;
81273;SDS011;70753;47.908;11.274;2023-11-22T15:08:57;6.45;;;4.15;;
81273;SDS011;70753;47.908;11.274;2023-11-22T15:11:43;8.38;;;3.97;;
81273;SDS011;70753;47.908;11.274;2023-11-22T15:14:29;6.88;;;4.53;;
81273;SDS011;70753;47.908;11.274;2023-11-22T15:17:14;6.88;;;3.85;;
81273;SDS011;70753;47.908;11.274;2023-11-22T15:20:00;7.38;;;4.03;;
81273;SDS011;70753;47.908;11.274;2023-11-22T15:22:46;6.50;;;4.03;;
81273;SDS011;70753;47.908;11.274;2023-11-22T15:25:33;7.63;;;4.75;;
81273;SDS011;70753;47.908;11.274;2023-11-22T15:28:18;6.80;;;4.20;;
81273;SDS011;70753;47.908;11.274;2023-11-22T15:31:04;8.35;;;4.55;;
81273;SDS011;70753;47.908;11.274;2023-11-22T15:33:50;6.65;;;3.95;;
81273;SDS011;70753;47.908;11.274;2023-11-22T15:36:36;6.90;;;3.83;;
81273;SDS011;70753;47.908;11.274;2023-11-22T15:39:21;7.30;;;4.32;;
81273;SDS011;70753;47.908;11.274;2023-11-22T15:42:09;6.63;;;4.10;;
81273;SDS011;70753;47.908;11.274;2023-11-22T15:44:54;7.25;;;4.20;;
81273;SDS011;70753;47.908;11.274;2023-11-22T15:47:40;7.30;;;4.30;;
81273;SDS011;70753;47.908;11.274;2023-11-22T15:50:26;6.40;;;4.00;;
81273;SDS011;70753;47.908;11.274;2023-11-22T15:53:11;9.13;;;4.35;;
81273;SDS011;70753;47.908;11.274;2023-11-22T15:55:57;9.07;;;3.95;;
81273;SDS011;70753;47.908;11.274;2023-11-22T15:58:44;6.82;;;3.80;;
81273;SDS011;70753;47.908;11.274;2023-11-22T16:01:30;7.15;;;4.30;;
81273;SDS011;70753;47.908;11.274;2023-11-22T16:04:16;9.65;;;5.40;;
81273;SDS011;70753;47.908;11.274;2023-11-22T16:07:02;9.75;;;4.88;;
81273;SDS011;70753;47.908;11.274;2023-11-22T16:09:47;8.32;;;5.28;;
81273;SDS011;70753;47.908;11.274;2023-11-22T16:12:33;9.77;;;5.03;;
81273;SDS011;70753;47.908;11.274;2023-11-22T16:15:20;7.35;;;5.05;;
81273;SDS011;70753;47.908;11.274;2023-11-22T16:18:06;7.97;;;4.55;;
81273;SDS011;70753;47.908;11.274;2023-11-22T16:20:52;8.93;;;5.20;;
81273;SDS011;70753;47.908;11.274;2023-11-22T16:23:38;8.23;;;4.78;;